createdAt,value
2023-02-12T00:00:51.519Z,3.20
2023-02-12T00:03:18.283Z,3.20
2023-02-12T00:05:44.884Z,3.20
2023-02-12T00:08:11.428Z,3.20
2023-02-12T00:10:42.249Z,3.20
2023-02-12T00:13:12.788Z,3.20
2023-02-12T00:15:41.189Z,3.20
2023-02-12T00:18:08.168Z,3.20
2023-02-12T00:20:35.087Z,3.20
2023-02-12T00:23:01.662Z,3.20
2023-02-12T00:25:28.224Z,3.20
2023-02-12T00:27:54.802Z,3.20
2023-02-12T00:30:22.076Z,3.20
2023-02-12T00:32:48.626Z,3.20
2023-02-12T00:35:15.408Z,3.20
2023-02-12T00:37:42.003Z,3.20
2023-02-12T00:40:09.056Z,3.20
2023-02-12T00:42:35.600Z,3.20
2023-02-12T00:45:02.215Z,3.20
2023-02-12T00:47:28.770Z,3.20
2023-02-12T00:49:55.329Z,3.20
2023-02-12T00:52:21.880Z,3.20
2023-02-12T00:54:48.478Z,3.20
2023-02-12T00:57:15.064Z,3.20
2023-02-12T00:59:41.623Z,3.10
2023-02-12T01:02:08.331Z,3.10
2023-02-12T01:04:35.052Z,3.10
2023-02-12T01:07:01.608Z,3.10
2023-02-12T01:09:28.184Z,3.10
2023-02-12T01:11:54.735Z,3.10
2023-02-12T01:14:21.417Z,3.10
2023-02-12T01:16:48.035Z,3.10
2023-02-12T01:19:14.696Z,3.10
2023-02-12T01:21:41.308Z,3.10
2023-02-12T01:24:08.191Z,3.10
2023-02-12T01:26:34.817Z,3.10
2023-02-12T01:29:03.764Z,3.10
2023-02-12T01:31:33.585Z,3.00
2023-02-12T01:34:01.072Z,3.10
2023-02-12T01:36:30.318Z,3.10
2023-02-12T01:38:56.894Z,3.10
2023-02-12T01:41:30.182Z,3.00
2023-02-12T01:44:11.785Z,3.00
2023-02-12T01:46:38.757Z,3.10
2023-02-12T01:49:08.375Z,3.00
2023-02-12T01:51:36.227Z,3.00
2023-02-12T01:54:06.563Z,3.00
2023-02-12T01:56:33.736Z,3.10
2023-02-12T01:59:01.087Z,3.00
2023-02-12T02:01:29.898Z,3.00
2023-02-12T02:04:02.231Z,3.00
2023-02-12T02:06:52.465Z,3.00
2023-02-12T02:09:19.816Z,3.00
2023-02-12T02:11:46.434Z,3.00
2023-02-12T02:14:13.062Z,3.10
2023-02-12T02:16:45.256Z,3.10
2023-02-12T02:19:11.734Z,3.10
2023-02-12T02:22:15.672Z,3.10
2023-02-12T02:25:14.339Z,3.00
2023-02-12T02:27:53.980Z,3.10
2023-02-12T02:30:50.910Z,3.00
2023-02-12T02:33:29.630Z,2.90
2023-02-12T02:36:10.524Z,2.90
2023-02-12T02:39:00.558Z,2.90
2023-02-12T02:41:35.320Z,2.90
2023-02-12T02:44:07.602Z,3.00
2023-02-12T02:46:49.326Z,3.00
2023-02-12T02:49:35.104Z,2.90
2023-02-12T02:52:07.195Z,3.00
2023-02-12T02:54:43.059Z,3.00
2023-02-12T02:57:14.948Z,3.00
2023-02-12T02:59:52.412Z,3.00
2023-02-12T03:02:24.942Z,3.00
2023-02-12T03:05:21.155Z,3.00
2023-02-12T03:07:59.009Z,3.00
2023-02-12T03:10:49.023Z,3.00
2023-02-12T03:13:21.092Z,3.00
2023-02-12T03:16:04.233Z,3.00
2023-02-12T03:18:43.625Z,3.00
2023-02-12T03:21:15.052Z,2.90
2023-02-12T03:24:08.425Z,2.90
2023-02-12T03:26:48.521Z,2.90
2023-02-12T03:29:15.432Z,3.00
2023-02-12T03:32:14.903Z,3.00
2023-02-12T03:34:47.199Z,3.00
2023-02-12T03:37:39.289Z,3.00
2023-02-12T03:40:20.415Z,3.00
2023-02-12T03:42:57.963Z,3.00
2023-02-12T03:45:46.091Z,3.00
2023-02-12T03:48:27.487Z,2.90
2023-02-12T03:50:58.471Z,2.90
2023-02-12T03:53:26.683Z,2.90
2023-02-12T03:55:57.823Z,2.90
2023-02-12T03:58:27.882Z,2.90
2023-02-12T04:00:54.827Z,2.90
2023-02-12T04:03:21.589Z,2.90
2023-02-12T04:05:48.141Z,2.90
2023-02-12T04:08:14.774Z,2.90
2023-02-12T04:10:53.086Z,2.90
2023-02-12T04:13:47.410Z,2.90
2023-02-12T04:16:14.098Z,2.90
2023-02-12T04:18:44.602Z,2.90
2023-02-12T04:21:35.741Z,3.00
2023-02-12T04:24:37.409Z,2.90
2023-02-12T04:27:47.283Z,2.90
2023-02-12T04:30:29.002Z,2.90
2023-02-12T04:33:07.052Z,2.90
2023-02-12T04:35:46.922Z,2.80
2023-02-12T04:38:35.772Z,2.80
2023-02-12T04:41:05.692Z,2.80
2023-02-12T04:43:36.674Z,2.90
2023-02-12T04:46:08.230Z,2.90
2023-02-12T04:48:37.118Z,2.90
2023-02-12T04:51:03.942Z,2.90
2023-02-12T04:53:30.522Z,2.90
2023-02-12T04:55:57.512Z,2.90
2023-02-12T04:58:24.208Z,2.90
2023-02-12T05:00:50.765Z,2.90
2023-02-12T05:03:17.320Z,2.90
2023-02-12T05:05:43.931Z,2.90
2023-02-12T05:08:10.485Z,2.90
2023-02-12T05:10:37.064Z,2.90
2023-02-12T05:13:03.611Z,2.80
2023-02-12T05:15:30.235Z,2.90
2023-02-12T05:17:56.836Z,2.80
2023-02-12T05:20:23.382Z,2.80
2023-02-12T05:22:55.002Z,2.80
2023-02-12T05:25:21.592Z,2.80
2023-02-12T05:27:48.161Z,2.80
2023-02-12T05:30:14.803Z,2.70
2023-02-12T05:32:41.348Z,2.70
2023-02-12T05:35:08.257Z,2.70
2023-02-12T05:37:36.391Z,2.70
2023-02-12T05:40:06.749Z,2.70
2023-02-12T05:42:33.282Z,2.70
2023-02-12T05:44:59.836Z,2.70
2023-02-12T05:47:26.396Z,2.70
2023-02-12T05:49:52.940Z,2.70
2023-02-12T05:52:19.556Z,2.70
2023-02-12T05:54:49.567Z,2.60
2023-02-12T05:57:16.123Z,2.70
2023-02-12T05:59:42.669Z,2.70
2023-02-12T06:02:09.224Z,2.70
2023-02-12T06:04:35.822Z,2.70
2023-02-12T06:07:02.448Z,2.70
2023-02-12T06:09:29.024Z,2.70
2023-02-12T06:11:55.559Z,2.70
2023-02-12T06:14:22.135Z,2.70
2023-02-12T06:16:50.535Z,2.70
2023-02-12T06:19:18.323Z,2.70
2023-02-12T06:21:45.303Z,2.70
2023-02-12T06:24:17.093Z,2.70
2023-02-12T06:26:44.255Z,2.70
2023-02-12T06:29:11.529Z,2.70
2023-02-12T06:31:38.234Z,2.70
2023-02-12T06:34:10.638Z,2.70
2023-02-12T06:36:39.652Z,2.70
2023-02-12T06:39:07.121Z,2.70
2023-02-12T06:41:33.885Z,2.70
2023-02-12T06:44:00.662Z,2.70
2023-02-12T06:46:27.307Z,2.70
2023-02-12T06:48:55.570Z,2.70
2023-02-12T06:51:23.009Z,2.70
2023-02-12T06:53:51.526Z,2.70
2023-02-12T06:56:19.366Z,2.70
2023-02-12T06:58:48.286Z,2.70
2023-02-12T07:01:22.168Z,2.70
2023-02-12T07:04:00.050Z,2.70
2023-02-12T07:06:28.319Z,2.70
2023-02-12T07:08:58.315Z,2.70
2023-02-12T07:11:30.852Z,2.70
2023-02-12T07:13:57.494Z,2.70
2023-02-12T07:16:24.291Z,2.70
2023-02-12T07:18:50.956Z,2.80
2023-02-12T07:21:17.894Z,2.80
2023-02-12T07:23:51.226Z,2.80
2023-02-12T07:26:19.406Z,2.90
2023-02-12T07:28:46.120Z,2.90
2023-02-12T07:31:14.189Z,2.90
2023-02-12T07:33:41.805Z,2.80
2023-02-12T07:36:17.923Z,2.90
2023-02-12T07:38:44.836Z,2.90
2023-02-12T07:41:14.142Z,2.90
2023-02-12T07:43:42.185Z,2.90
2023-02-12T07:46:11.486Z,2.90
2023-02-12T07:48:38.655Z,3.00
2023-02-12T07:51:10.532Z,3.00
2023-02-12T07:53:37.927Z,3.00
2023-02-12T07:56:12.566Z,3.10
2023-02-12T07:58:41.231Z,3.20
2023-02-12T08:01:18.243Z,3.20
2023-02-12T08:03:46.135Z,3.30
2023-02-12T08:06:15.598Z,3.30
2023-02-12T08:08:42.539Z,3.30
2023-02-12T08:11:10.882Z,3.40
2023-02-12T08:13:38.405Z,3.40
2023-02-12T08:16:08.052Z,3.50
2023-02-12T08:18:35.153Z,3.50
2023-02-12T08:21:07.443Z,3.60
2023-02-12T08:23:34.549Z,3.60
2023-02-12T08:26:10.823Z,3.60
2023-02-12T08:28:39.228Z,3.70
2023-02-12T08:31:09.386Z,3.70
2023-02-12T08:33:36.100Z,3.80
2023-02-12T08:36:07.179Z,3.80
2023-02-12T08:38:34.110Z,3.80
2023-02-12T08:41:02.418Z,3.90
2023-02-12T08:43:29.466Z,3.90
2023-02-12T08:46:05.517Z,3.90
2023-02-12T08:48:32.704Z,4.00
2023-02-12T08:51:09.725Z,4.00
2023-02-12T08:53:38.092Z,4.00
2023-02-12T08:56:05.980Z,4.10
2023-02-12T08:58:33.523Z,4.30
2023-02-12T09:01:00.615Z,4.30
2023-02-12T09:03:27.461Z,4.30
2023-02-12T09:05:54.779Z,4.40
2023-02-12T09:08:21.550Z,4.40
2023-02-12T09:10:48.172Z,4.40
2023-02-12T09:13:15.101Z,4.50
2023-02-12T09:15:45.013Z,4.50
2023-02-12T09:18:13.556Z,4.60
2023-02-12T09:20:43.567Z,4.60
2023-02-12T09:23:12.886Z,4.60
2023-02-12T09:25:44.204Z,4.70
2023-02-12T09:28:12.089Z,4.80
2023-02-12T09:30:39.613Z,4.90
2023-02-12T09:33:06.967Z,5.00
2023-02-12T09:35:38.243Z,5.00
2023-02-12T09:38:05.769Z,5.00
2023-02-12T09:41:08.413Z,5.10
2023-02-12T09:44:11.302Z,5.20
2023-02-12T09:46:48.465Z,5.20
2023-02-12T09:49:26.992Z,5.20
2023-02-12T09:51:54.652Z,5.30
2023-02-12T09:54:25.777Z,5.30
2023-02-12T09:56:58.682Z,5.30
2023-02-12T09:59:35.906Z,5.30
2023-02-12T10:02:02.561Z,5.30
2023-02-12T10:04:29.316Z,5.40
2023-02-12T10:07:18.889Z,5.50
2023-02-12T10:10:08.001Z,5.40
2023-02-12T10:12:54.049Z,5.50
2023-02-12T10:15:41.574Z,5.60
2023-02-12T10:18:34.703Z,5.70
2023-02-12T10:21:21.502Z,5.70
2023-02-12T10:23:56.778Z,5.70
2023-02-12T10:26:29.778Z,5.90
2023-02-12T10:29:05.484Z,6.00
2023-02-12T10:31:37.486Z,6.00
2023-02-12T10:34:26.164Z,6.00
2023-02-12T10:37:10.480Z,6.00
2023-02-12T10:39:48.059Z,6.00
2023-02-12T10:42:38.255Z,5.90
2023-02-12T10:45:05.282Z,6.00
2023-02-12T10:47:31.911Z,5.90
2023-02-12T10:50:00.540Z,5.80
2023-02-12T10:52:44.901Z,5.90
2023-02-12T10:55:35.778Z,5.80
2023-02-12T10:58:04.949Z,5.80
2023-02-12T11:00:37.708Z,5.80
2023-02-12T11:03:06.174Z,5.90
2023-02-12T11:05:35.872Z,5.90
2023-02-12T11:08:03.214Z,5.90
2023-02-12T11:10:33.267Z,6.00
2023-02-12T11:13:02.535Z,5.90
2023-02-12T11:15:38.321Z,6.00
2023-02-12T11:18:07.756Z,6.00
2023-02-12T11:20:40.772Z,6.10
2023-02-12T11:23:25.116Z,6.10
2023-02-12T11:26:00.754Z,6.20
2023-02-12T11:28:28.596Z,6.20
2023-02-12T11:31:00.987Z,6.20
2023-02-12T11:33:36.043Z,6.20
2023-02-12T11:36:07.020Z,6.30
2023-02-12T11:38:37.523Z,6.30
2023-02-12T11:41:09.049Z,6.30
2023-02-12T11:43:37.097Z,6.40
2023-02-12T11:46:04.879Z,6.60
2023-02-12T11:48:36.586Z,6.60
2023-02-12T11:51:05.818Z,6.70
2023-02-12T11:53:35.046Z,6.90
2023-02-12T11:56:05.026Z,7.00
2023-02-12T11:58:31.958Z,7.20
2023-02-12T12:01:04.677Z,7.20
2023-02-12T12:03:47.667Z,7.30
2023-02-12T12:06:53.346Z,7.30
2023-02-12T12:09:41.487Z,7.10
2023-02-12T12:12:18.834Z,7.30
2023-02-12T12:14:59.271Z,7.10
2023-02-12T12:17:36.388Z,7.10
2023-02-12T12:20:11.185Z,7.10
2023-02-12T12:22:57.539Z,7.10
2023-02-12T12:25:26.226Z,7.10
2023-02-12T12:27:55.578Z,7.20
2023-02-12T12:30:29.403Z,7.20
2023-02-12T12:32:59.267Z,7.20
2023-02-12T12:35:39.238Z,7.40
2023-02-12T12:38:29.625Z,7.40
2023-02-12T12:41:03.114Z,7.50
2023-02-12T12:43:50.822Z,7.60
2023-02-12T12:46:25.656Z,7.50
2023-02-12T12:49:10.157Z,7.60
2023-02-12T12:52:04.018Z,7.90
2023-02-12T12:54:55.622Z,8.00
2023-02-12T12:57:53.139Z,8.30
2023-02-12T13:00:28.394Z,8.70
2023-02-12T13:03:05.742Z,9.00
2023-02-12T13:05:41.184Z,9.10
2023-02-12T13:08:19.072Z,9.10
2023-02-12T13:11:09.051Z,9.00
2023-02-12T13:13:43.095Z,8.70
2023-02-12T13:16:30.270Z,8.50
2023-02-12T13:19:31.954Z,8.80
2023-02-12T13:22:43.244Z,8.70
2023-02-12T13:25:34.408Z,8.50
2023-02-12T13:28:03.616Z,8.50
2023-02-12T13:31:09.428Z,8.30
2023-02-12T13:34:04.953Z,8.20
2023-02-12T13:36:33.025Z,8.10
2023-02-12T13:39:10.188Z,8.10
2023-02-12T13:41:37.876Z,8.00
2023-02-12T13:44:07.517Z,8.00
2023-02-12T13:46:58.132Z,7.90
2023-02-12T13:50:00.483Z,7.90
2023-02-12T13:52:42.099Z,8.10
2023-02-12T13:55:23.712Z,7.90
2023-02-12T13:58:27.945Z,8.10
2023-02-12T14:01:01.465Z,8.10
2023-02-12T14:03:30.247Z,8.10
2023-02-12T14:06:18.408Z,8.00
2023-02-12T14:09:06.780Z,8.10
2023-02-12T14:11:33.735Z,8.20
2023-02-12T14:14:03.099Z,8.00
2023-02-12T14:16:29.630Z,8.00
2023-02-12T14:19:33.569Z,7.90
2023-02-12T14:22:00.893Z,7.90
2023-02-12T14:24:36.304Z,7.70
2023-02-12T14:27:18.815Z,7.80
2023-02-12T14:30:04.972Z,7.90
2023-02-12T14:32:49.924Z,7.90
2023-02-12T14:35:38.089Z,7.80
2023-02-12T14:38:36.913Z,7.80
2023-02-12T14:41:30.668Z,7.70
2023-02-12T14:44:17.105Z,7.80
2023-02-12T14:46:58.763Z,7.80
2023-02-12T14:49:46.996Z,7.90
2023-02-12T14:52:13.507Z,7.80
2023-02-12T14:55:01.736Z,7.70
2023-02-12T14:57:35.201Z,7.50
2023-02-12T15:00:16.820Z,7.40
2023-02-12T15:03:12.140Z,7.40
2023-02-12T15:06:04.828Z,7.40
2023-02-12T15:08:58.407Z,7.40
2023-02-12T15:11:55.047Z,7.40
2023-02-12T15:14:26.895Z,7.50
2023-02-12T15:17:06.512Z,7.50
2023-02-12T15:19:48.262Z,7.40
2023-02-12T15:22:27.840Z,7.50
2023-02-12T15:25:13.866Z,7.40
2023-02-12T15:27:47.623Z,7.40
2023-02-12T15:30:26.052Z,7.30
2023-02-12T15:32:56.427Z,7.30
2023-02-12T15:35:37.626Z,7.40
2023-02-12T15:38:05.127Z,7.70
2023-02-12T15:40:31.989Z,7.80
2023-02-12T15:43:04.340Z,8.10
2023-02-12T15:45:33.781Z,8.30
2023-02-12T15:48:09.317Z,8.10
2023-02-12T15:50:47.110Z,7.90
2023-02-12T15:53:14.742Z,7.90
2023-02-12T15:55:45.748Z,7.80
2023-02-12T15:58:26.145Z,7.80
2023-02-12T16:00:53.702Z,7.60
2023-02-12T16:03:26.671Z,7.40
2023-02-12T16:05:57.885Z,7.50
2023-02-12T16:08:25.030Z,7.30
2023-02-12T16:10:53.521Z,7.00
2023-02-12T16:13:32.202Z,6.90
2023-02-12T16:16:29.363Z,6.90
2023-02-12T16:19:22.097Z,6.80
2023-02-12T16:21:59.288Z,6.70
2023-02-12T16:24:27.915Z,6.60
2023-02-12T16:26:55.667Z,6.50
2023-02-12T16:29:22.521Z,6.40
2023-02-12T16:31:58.308Z,6.40
2023-02-12T16:34:30.796Z,6.30
2023-02-12T16:36:57.746Z,6.20
2023-02-12T16:39:58.268Z,6.20
2023-02-12T16:42:25.850Z,6.10
2023-02-12T16:44:52.423Z,6.10
2023-02-12T16:47:24.698Z,6.00
2023-02-12T16:50:00.311Z,6.00
2023-02-12T16:52:39.621Z,5.90
2023-02-12T16:55:14.923Z,5.80
2023-02-12T16:57:41.943Z,5.70
2023-02-12T17:00:15.154Z,5.70
2023-02-12T17:02:41.965Z,5.60
2023-02-12T17:05:08.791Z,5.70
2023-02-12T17:07:35.380Z,5.90
2023-02-12T17:10:02.549Z,5.70
2023-02-12T17:12:29.424Z,5.50
2023-02-12T17:14:55.971Z,5.30
2023-02-12T17:17:22.546Z,5.20
2023-02-12T17:19:49.134Z,5.20
2023-02-12T17:22:22.747Z,5.10
2023-02-12T17:24:49.307Z,5.00
2023-02-12T17:27:15.869Z,5.00
2023-02-12T17:29:42.411Z,5.10
2023-02-12T17:32:09.109Z,5.20
2023-02-12T17:34:48.062Z,5.00
2023-02-12T17:37:15.377Z,5.00
2023-02-12T17:39:41.942Z,5.10
2023-02-12T17:42:08.732Z,5.00
2023-02-12T17:44:35.331Z,4.90
2023-02-12T17:47:01.881Z,4.80
2023-02-12T17:49:30.102Z,4.80
2023-02-12T17:51:56.667Z,4.80
2023-02-12T17:54:23.231Z,4.70
2023-02-12T17:56:49.766Z,4.70
2023-02-12T17:59:16.314Z,4.60
2023-02-12T18:01:42.902Z,4.60
2023-02-12T18:04:09.531Z,4.70
2023-02-12T18:06:36.138Z,4.70
2023-02-12T18:09:03.530Z,4.60
2023-02-12T18:11:30.688Z,4.60
2023-02-12T18:13:58.282Z,4.50
2023-02-12T18:16:28.177Z,4.40
2023-02-12T18:18:55.565Z,4.30
2023-02-12T18:21:22.159Z,4.30
2023-02-12T18:23:48.922Z,4.20
2023-02-12T18:26:17.623Z,4.10
2023-02-12T18:28:44.666Z,4.10
2023-02-12T18:31:11.472Z,4.00
2023-02-12T18:33:38.751Z,4.00
2023-02-12T18:36:10.038Z,4.00
2023-02-12T18:38:38.251Z,4.00
2023-02-12T18:41:10.362Z,4.00
2023-02-12T18:43:37.455Z,4.00
2023-02-12T18:46:07.305Z,4.10
2023-02-12T18:48:33.994Z,4.00
2023-02-12T18:51:02.202Z,4.00
2023-02-12T18:53:29.071Z,4.10
2023-02-12T18:55:55.789Z,3.90
2023-02-12T18:58:22.437Z,3.90
2023-02-12T19:00:49.053Z,3.80
2023-02-12T19:03:16.637Z,3.90
2023-02-12T19:05:43.227Z,3.90
2023-02-12T19:08:10.031Z,3.90
2023-02-12T19:10:39.371Z,3.80
2023-02-12T19:13:06.261Z,3.80
2023-02-12T19:15:32.851Z,3.80
2023-02-12T19:17:59.451Z,3.70
2023-02-12T19:20:26.068Z,3.70
2023-02-12T19:22:52.652Z,3.60
2023-02-12T19:25:19.231Z,3.60
2023-02-12T19:27:45.761Z,3.60
2023-02-12T19:30:12.708Z,3.60
2023-02-12T19:32:39.280Z,3.70
2023-02-12T19:35:06.373Z,3.60
2023-02-12T19:37:32.988Z,3.60
2023-02-12T19:39:59.624Z,3.50
2023-02-12T19:42:26.247Z,3.40
2023-02-12T19:44:52.809Z,3.40
2023-02-12T19:47:19.399Z,3.40
2023-02-12T19:49:46.038Z,3.30
2023-02-12T19:52:12.607Z,3.40
2023-02-12T19:54:39.214Z,3.40
2023-02-12T19:57:05.775Z,3.40
2023-02-12T19:59:32.322Z,3.40
2023-02-12T20:01:58.890Z,3.30
2023-02-12T20:04:25.599Z,3.30
2023-02-12T20:06:52.722Z,3.20
2023-02-12T20:09:21.082Z,3.10
2023-02-12T20:11:47.886Z,3.10
2023-02-12T20:14:14.811Z,3.10
2023-02-12T20:16:41.887Z,3.10
2023-02-12T20:19:21.344Z,3.10
2023-02-12T20:21:48.382Z,3.00
2023-02-12T20:24:15.123Z,3.10
2023-02-12T20:26:41.680Z,3.00
2023-02-12T20:29:08.351Z,3.00
2023-02-12T20:31:37.074Z,3.00
2023-02-12T20:34:11.240Z,3.00
2023-02-12T20:36:40.618Z,3.00
2023-02-12T20:39:09.299Z,3.00
2023-02-12T20:41:36.618Z,3.10
2023-02-12T20:44:05.411Z,3.10
2023-02-12T20:46:32.117Z,3.10
2023-02-12T20:48:58.727Z,3.10
2023-02-12T20:51:26.855Z,3.10
2023-02-12T20:53:54.416Z,3.10
2023-02-12T20:56:29.548Z,3.10
2023-02-12T20:58:56.190Z,3.10
2023-02-12T21:01:24.824Z,3.40
2023-02-12T21:03:54.020Z,3.30
2023-02-12T21:06:21.850Z,3.40
2023-02-12T21:08:48.464Z,3.30
2023-02-12T21:11:18.067Z,3.10
2023-02-12T21:14:02.349Z,2.90
2023-02-12T21:16:33.754Z,2.80
2023-02-12T21:19:00.935Z,2.70
2023-02-12T21:21:30.575Z,2.60
2023-02-12T21:23:58.750Z,2.60
2023-02-12T21:26:27.263Z,2.60
2023-02-12T21:28:56.796Z,2.50
2023-02-12T21:31:26.236Z,2.50
2023-02-12T21:33:54.516Z,2.50
2023-02-12T21:36:23.646Z,2.40
2023-02-12T21:38:51.374Z,2.40
2023-02-12T21:41:20.646Z,2.40
2023-02-12T21:43:49.940Z,2.40
2023-02-12T21:46:17.499Z,2.30
2023-02-12T21:48:45.254Z,2.30
2023-02-12T21:51:17.914Z,2.20
2023-02-12T21:53:44.504Z,2.20
2023-02-12T21:56:11.076Z,2.10
2023-02-12T21:58:37.651Z,2.10
2023-02-12T22:01:13.189Z,2.00
2023-02-12T22:03:39.802Z,2.00
2023-02-12T22:06:08.091Z,2.00
2023-02-12T22:08:35.349Z,2.00
2023-02-12T22:11:06.295Z,2.00
2023-02-12T22:13:32.933Z,2.00
2023-02-12T22:16:38.172Z,2.00
2023-02-12T22:19:05.532Z,2.10
2023-02-12T22:21:35.561Z,2.00
2023-02-12T22:24:05.034Z,2.00
2023-02-12T22:26:32.624Z,2.10
2023-02-12T22:29:03.228Z,2.10
2023-02-12T22:31:32.313Z,2.10
2023-02-12T22:34:01.259Z,2.10
2023-02-12T22:36:28.684Z,2.10
2023-02-12T22:38:58.510Z,2.10
2023-02-12T22:41:25.703Z,2.10
2023-02-12T22:43:52.453Z,2.20
2023-02-12T22:46:19.836Z,2.20
2023-02-12T22:48:47.174Z,2.40
2023-02-12T22:51:26.696Z,2.30
2023-02-12T22:53:54.885Z,2.20
2023-02-12T22:56:22.559Z,2.20
2023-02-12T22:58:53.381Z,2.30
2023-02-12T23:01:20.029Z,2.30
2023-02-12T23:03:47.086Z,2.40
2023-02-12T23:06:17.994Z,2.30
2023-02-12T23:08:48.188Z,2.20
2023-02-12T23:11:14.739Z,2.40
2023-02-12T23:13:41.290Z,2.40
2023-02-12T23:16:08.014Z,2.30
2023-02-12T23:18:34.647Z,2.20
2023-02-12T23:21:01.827Z,2.20
2023-02-12T23:23:28.466Z,2.10
2023-02-12T23:25:55.313Z,2.30
2023-02-12T23:28:22.700Z,2.30
2023-02-12T23:30:50.993Z,2.30
2023-02-12T23:33:20.255Z,2.20
2023-02-12T23:35:47.632Z,2.00
2023-02-12T23:38:14.977Z,1.90
2023-02-12T23:40:41.908Z,2.00
2023-02-12T23:43:08.757Z,1.90
2023-02-12T23:45:35.426Z,2.10
2023-02-12T23:48:02.042Z,2.10
2023-02-12T23:50:28.610Z,2.00
2023-02-12T23:52:55.243Z,2.00
2023-02-12T23:55:21.882Z,2.10
2023-02-12T23:57:48.495Z,1.90
